Main page
METAR-TAF:

METAR-TAF

Airports :

Fort Dodge Regional Airport

Fort Dodge, Iowa, United States

latitude: 42-33N, longitude: 094-11W, elevation: 1161 ft

Current weather observation

The report was made 24 minutes ago, at 08:56 UTC
Calm wind
Temperature 36°F
Humidity 80%
Pressure 30.06 in. Hg
Visibility: 10 miles
Clear sky

METAR: KFOD 130856Z AUTO 00000KT 10SM CLR 02/M01 A3006 RMK AO2 SLP198 T00221011 57009 FZRANO

Time: 04:20 (09:20 UTC)

Forecast

The report was made 4 hours and 0 minutes ago, at 05:20 UTC
Forecast valid from 13 at 06 UTC to 14 at 06 UTC
Wind 3 mph from the South
Visibility: 6 miles
Clear sky
From 13 at 1300 UTC
Wind 9 mph from the South/Southeast
Visibility: 6 miles
Clear sky
From 13 at 1900 UTC
Wind 18 mph from the South
Visibility: 6 miles
Few clouds at a height of 25000 ft
From 14 at 0400 UTC
Wind 8 mph from the South
Visibility: 6 miles
Few clouds at a height of 25000 ft

TAF: KFOD 130520Z 1306/1406 18003KT P6SM SKC FM131300 16008KT P6SM SKC FM131900 18016KT P6SM FEW250 FM140400 19007KT P6SM FEW250

Weather observations and forecasts of more than 4000 airports (METAR and TAF reports).

The available stations are represented by yellow and red dots on the map.

Hover mouse over dot to see the name of the station.

Then click to see weather observations and forecasts.

To change the map : click on the green buttons with a black cross to zoom in, on the green button with a dash to zoom out, or on the green arrows for adjacent maps.


METAR-TAF: